OITK  Khoy Airport

Add Bookmark

Khoy, Iran

Status IATA
Operational KHY
Latitude Longitude
38° 25' 39" N 44° 58' 24" E
38.427502 44.973598
Local (DST + 5) UTC (GMT + 4)
Aug 29, 2014 02:27 Aug 29, 2014 09:57
Sunrise-Sunset Local UTC
Begin Civil Twilight 06:28 01:58
Sunrise 06:55 02:25
Sunset 08:06 15:36
End Civil Twilight 08:33 16:03

Current Weather

METAR Observed VFR
OITK 281000Z 13010KT 9999 FEW035CB 35/05 Q1013 Thu, Aug 28, 2014 @ 10:00 UTC
(23 Hours, 57 Minutes ago)
Visual Flight Rules
Wind Visibility Clouds Conditions
130° at 10 knots (19 kph) 10 km or more
  • Few at 3,500' AGL
  • No significant weather
Temperatures Readings Precipitation
Current Temp 35°C (95°F)
Dewpoint 5°C (41°F)
Humidity 15%
Altimeter 29.91"Hg
Sea Level Pressure 1013mb
Field Elevation 3631.89'
None Recorded

Additional weather within a 92.6km radius of OITK

Map ICAO Location
OITR 84.8km S (174°)

24 Hour Weather History

Loading
-

24 Hour Weather Graphs

Loading
-

CheckWX.com is intended as a tool to help pilots better visualize weather data. It is not intended as a substitute for an official weather briefing obtained from a Flight Service Station. CheckWX.com does not meet the FAA requirements for an official pre-flight weather briefing. Therefore, it's important that pilots still call and obtain an official FSS pre-flight weather briefing.